Absecon Heights, New Jersey
Current Conditions -  °F | °C
As of 9:54 AM on Thursday 23 Oct 2014 (Local Time) from KACY Reporting Station
Overcast Overcast  
Wind Chill: 50°   Ceiling: 1200
Heat Index: 50°   Visibility: 10mi
Dew Point: 48°   Wind: 20mph
Humidity: 93%   Direction: 320°NW
Pressure: 29.73"   Gusts: 24mph
Location:  39.4315°N, 74.5003°W
Report Text: KACY 231354Z 32017G21KT 10SM OVC012 10/09 A2973 RMK AO2 SLP065 T01000089
Loading
Personal Weather Stations






























Interactive Weather Map
Tropical Storm Tracking
New forecast layout! Learn more

10-Day Weather Forecast

Advertisements
Track Severe Weather on mobile